createdAt,value
2024-01-05T00:00:15.223Z,55.53
2024-01-05T00:02:47.033Z,32.97
2024-01-05T00:05:18.784Z,35.00
2024-01-05T00:07:50.527Z,34.07
2024-01-05T00:10:22.333Z,35.00
2024-01-05T00:12:54.122Z,32.03
2024-01-05T00:15:26.409Z,32.20
2024-01-05T00:17:58.282Z,32.27
2024-01-05T00:20:30.099Z,33.47
2024-01-05T00:23:01.881Z,32.60
2024-01-05T00:25:33.664Z,32.67
2024-01-05T00:28:05.648Z,32.50
2024-01-05T00:30:37.639Z,31.53
2024-01-05T00:33:09.883Z,34.20
2024-01-05T00:35:41.694Z,32.30
2024-01-05T00:38:13.469Z,36.17
2024-01-05T00:40:45.204Z,35.33
2024-01-05T00:43:16.960Z,36.73
2024-01-05T00:45:48.746Z,36.67
2024-01-05T00:48:20.689Z,35.77
2024-01-05T00:50:52.639Z,35.90
2024-01-05T00:53:24.444Z,35.30
2024-01-05T00:55:56.212Z,37.27
2024-01-05T00:58:28.009Z,36.07
2024-01-05T01:00:59.961Z,35.07
2024-01-05T01:03:31.921Z,33.37
2024-01-05T01:06:04.442Z,38.17
2024-01-05T01:08:36.261Z,32.00
2024-01-05T01:11:14.644Z,31.37
2024-01-05T01:13:46.469Z,32.17
2024-01-05T01:16:18.314Z,30.73
2024-01-05T01:18:50.261Z,30.67
2024-01-05T01:21:22.250Z,30.77
2024-01-05T01:23:54.080Z,31.13
2024-01-05T01:26:25.866Z,31.37
2024-01-05T01:28:57.620Z,30.93
2024-01-05T01:31:30.024Z,30.60
2024-01-05T01:34:01.919Z,30.93
2024-01-05T01:36:33.754Z,31.67
2024-01-05T01:39:06.104Z,29.67
2024-01-05T01:41:38.517Z,29.43
2024-01-05T01:44:10.282Z,31.40
2024-01-05T01:46:42.431Z,30.27
2024-01-05T01:49:14.431Z,29.93
2024-01-05T01:51:47.139Z,29.77
2024-01-05T01:54:19.110Z,30.13
2024-01-05T01:56:51.692Z,31.50
2024-01-05T01:59:23.543Z,32.20
2024-01-05T02:01:55.417Z,33.53
2024-01-05T02:04:28.163Z,33.27
2024-01-05T02:07:00.088Z,35.33
2024-01-05T02:09:32.297Z,34.90
2024-01-05T02:12:04.458Z,33.70
2024-01-05T02:14:36.263Z,35.23
2024-01-05T02:17:27.467Z,35.73
2024-01-05T02:19:59.847Z,34.10
2024-01-05T02:22:34.370Z,35.57
2024-01-05T02:25:06.646Z,34.60
2024-01-05T02:27:38.470Z,36.17
2024-01-05T02:30:11.052Z,34.50
2024-01-05T02:32:42.882Z,35.67
2024-01-05T02:35:14.789Z,35.17
2024-01-05T02:37:46.572Z,35.10
2024-01-05T02:40:18.323Z,34.27
2024-01-05T02:42:50.161Z,34.27
2024-01-05T02:45:22.631Z,33.33
2024-01-05T02:47:54.828Z,32.27
2024-01-05T02:50:26.660Z,33.40
2024-01-05T02:52:58.430Z,33.03
2024-01-05T02:55:30.192Z,32.90
2024-01-05T02:58:05.106Z,31.00
2024-01-05T03:00:37.234Z,33.33
2024-01-05T03:03:09.459Z,32.90
2024-01-05T03:05:41.377Z,34.30
2024-01-05T03:08:13.309Z,31.70
2024-01-05T03:10:45.069Z,32.47
2024-01-05T03:13:16.827Z,32.00
2024-01-05T03:15:48.568Z,32.37
2024-01-05T03:18:20.447Z,32.30
2024-01-05T03:20:52.349Z,30.33
2024-01-05T03:23:24.134Z,30.47
2024-01-05T03:25:57.885Z,30.57
2024-01-05T03:28:29.789Z,31.13
2024-01-05T03:31:01.599Z,35.50
2024-01-05T03:33:33.595Z,32.73
2024-01-05T03:36:05.886Z,34.50
2024-01-05T03:38:37.791Z,32.17
2024-01-05T03:41:09.672Z,31.90
2024-01-05T03:43:41.440Z,31.57
2024-01-05T03:46:13.355Z,34.00
2024-01-05T03:48:45.275Z,32.67
2024-01-05T03:51:17.149Z,34.17
2024-01-05T03:53:48.918Z,33.43
2024-01-05T03:56:20.688Z,33.03
2024-01-05T03:58:52.442Z,33.93
2024-01-05T04:01:24.232Z,34.40
2024-01-05T04:03:56.156Z,33.00
2024-01-05T04:06:28.093Z,34.53
2024-01-05T04:08:59.975Z,35.03
2024-01-05T04:11:32.036Z,52.70
2024-01-05T04:14:04.179Z,35.40
2024-01-05T04:16:36.195Z,33.87
2024-01-05T04:19:09.613Z,38.50
2024-01-05T04:21:41.907Z,35.77
2024-01-05T04:24:13.948Z,33.93
2024-01-05T04:26:45.958Z,39.83
2024-01-05T04:29:17.782Z,37.17
2024-01-05T04:31:49.529Z,36.33
2024-01-05T04:34:21.531Z,36.13
2024-01-05T04:36:53.492Z,34.37
2024-01-05T04:39:25.338Z,34.10
2024-01-05T04:41:57.193Z,40.80
2024-01-05T04:44:28.988Z,39.73
2024-01-05T04:47:00.762Z,33.30
2024-01-05T04:49:34.939Z,42.10
2024-01-05T04:52:07.068Z,32.90
2024-01-05T04:54:38.893Z,33.37
2024-01-05T04:57:10.713Z,41.77
2024-01-05T04:59:42.602Z,34.00
2024-01-05T05:02:14.403Z,33.60
2024-01-05T05:04:48.653Z,36.90
2024-01-05T05:07:20.718Z,37.53
2024-01-05T05:09:52.510Z,33.23
2024-01-05T05:12:24.403Z,40.00
2024-01-05T05:14:56.272Z,34.63
2024-01-05T05:17:28.114Z,35.97
2024-01-05T05:19:59.919Z,37.90
2024-01-05T05:22:31.722Z,38.13
2024-01-05T05:25:07.154Z,33.70
2024-01-05T05:27:39.469Z,39.90
2024-01-05T05:30:11.706Z,37.60
2024-01-05T05:32:43.636Z,37.83
2024-01-05T05:35:15.481Z,34.23
2024-01-05T05:37:47.357Z,33.50
2024-01-05T05:40:19.137Z,33.50
2024-01-05T05:42:50.888Z,42.47
2024-01-05T05:45:22.938Z,34.83
2024-01-05T05:47:54.904Z,38.20
2024-01-05T05:50:26.715Z,45.23
2024-01-05T05:52:58.428Z,46.00
2024-01-05T05:55:30.287Z,41.37
2024-01-05T05:58:04.319Z,45.20
2024-01-05T06:00:37.704Z,34.33
2024-01-05T06:03:12.461Z,34.93
2024-01-05T06:05:46.209Z,37.97
2024-01-05T06:08:17.996Z,36.00
2024-01-05T06:10:49.838Z,35.40
2024-01-05T06:13:21.636Z,39.70
2024-01-05T06:15:53.702Z,65.53
2024-01-05T06:18:25.623Z,38.47
2024-01-05T06:20:57.499Z,33.87
2024-01-05T06:23:29.346Z,36.63
2024-01-05T06:26:01.276Z,33.00
2024-01-05T06:28:33.163Z,33.90
2024-01-05T06:31:06.891Z,34.83
2024-01-05T06:33:38.834Z,40.60
2024-01-05T06:36:10.768Z,33.30
2024-01-05T06:38:42.566Z,41.87
2024-01-05T06:41:14.331Z,38.07
2024-01-05T06:43:46.100Z,34.60
2024-01-05T06:46:18.572Z,34.63
2024-01-05T06:48:50.598Z,68.40
2024-01-05T06:51:24.430Z,36.77
2024-01-05T06:53:56.542Z,33.47
2024-01-05T06:56:32.980Z,34.20
2024-01-05T06:59:05.471Z,33.67
2024-01-05T07:01:37.393Z,36.77
2024-01-05T07:04:09.285Z,35.10
2024-01-05T07:06:42.737Z,35.37
2024-01-05T07:09:15.228Z,40.37
2024-01-05T07:11:47.305Z,35.73
2024-01-05T07:14:19.164Z,44.53
2024-01-05T07:16:50.975Z,38.93
2024-01-05T07:19:23.461Z,36.93
2024-01-05T07:21:55.240Z,39.70
2024-01-05T07:24:27.021Z,35.97
2024-01-05T07:26:58.798Z,41.07
2024-01-05T07:29:30.605Z,42.53
2024-01-05T07:32:02.480Z,45.73
2024-01-05T07:34:34.411Z,36.53
2024-01-05T07:37:06.771Z,36.40
2024-01-05T07:39:39.263Z,37.33
2024-01-05T07:42:11.091Z,36.50
2024-01-05T07:44:42.886Z,35.87
2024-01-05T07:47:14.683Z,38.40
2024-01-05T07:49:46.602Z,34.03
2024-01-05T07:52:18.500Z,47.30
2024-01-05T07:54:50.287Z,35.10
2024-01-05T07:57:22.083Z,35.47
2024-01-05T07:59:53.853Z,43.40
2024-01-05T08:02:25.622Z,35.17
2024-01-05T08:04:57.369Z,36.90
2024-01-05T08:07:29.259Z,39.67
2024-01-05T08:10:04.769Z,40.47
2024-01-05T08:12:36.717Z,39.40
2024-01-05T08:15:08.855Z,36.07
2024-01-05T08:17:41.565Z,36.37
2024-01-05T08:20:13.382Z,36.30
2024-01-05T08:22:45.149Z,38.33
2024-01-05T08:25:17.012Z,37.47
2024-01-05T08:27:48.933Z,43.30
2024-01-05T08:30:20.990Z,39.03
2024-01-05T08:32:56.657Z,37.50
2024-01-05T08:35:29.941Z,36.20
2024-01-05T08:38:01.935Z,39.03
2024-01-05T08:40:33.744Z,33.90
2024-01-05T08:43:05.724Z,35.37
2024-01-05T08:45:37.901Z,35.57
2024-01-05T08:48:10.254Z,35.30
2024-01-05T08:50:42.363Z,33.17
2024-01-05T08:53:14.161Z,36.53
2024-01-05T08:55:46.290Z,32.77
2024-01-05T08:58:18.389Z,34.63
2024-01-05T09:00:50.232Z,36.90
2024-01-05T09:03:22.372Z,37.60
2024-01-05T09:05:54.198Z,36.50
2024-01-05T09:08:29.075Z,38.57
2024-01-05T09:11:00.816Z,39.53
2024-01-05T09:13:33.696Z,39.70
2024-01-05T09:16:06.798Z,40.90
2024-01-05T09:18:39.417Z,44.23
2024-01-05T09:21:13.382Z,43.57
2024-01-05T09:23:45.221Z,45.70
2024-01-05T09:26:17.526Z,43.23
2024-01-05T09:28:50.066Z,47.93
2024-01-05T09:31:21.968Z,45.23
2024-01-05T09:33:53.888Z,53.00
2024-01-05T09:36:27.530Z,50.17
2024-01-05T09:38:59.309Z,56.47
2024-01-05T09:41:31.072Z,49.33
2024-01-05T09:44:04.420Z,39.43
2024-01-05T09:46:39.033Z,44.77
2024-01-05T09:49:14.923Z,39.57
2024-01-05T09:51:47.060Z,34.80
2024-01-05T09:54:19.025Z,37.63
2024-01-05T09:56:51.361Z,38.70
2024-01-05T09:59:25.394Z,36.70
2024-01-05T10:02:01.182Z,36.33
2024-01-05T10:04:34.231Z,37.27
2024-01-05T10:07:06.110Z,37.30
2024-01-05T10:09:50.908Z,35.60
2024-01-05T10:12:22.856Z,37.03
2024-01-05T10:15:06.073Z,36.67
2024-01-05T10:17:37.922Z,34.73
2024-01-05T10:20:18.080Z,36.23
2024-01-05T10:22:50.077Z,37.27
2024-01-05T10:25:27.418Z,43.30
2024-01-05T10:28:00.234Z,44.43
2024-01-05T10:30:32.394Z,40.87
2024-01-05T10:33:09.109Z,43.47
2024-01-05T10:35:43.077Z,45.07
2024-01-05T10:38:16.262Z,44.67
2024-01-05T10:40:49.469Z,42.63
2024-01-05T10:43:23.821Z,43.60
2024-01-05T10:45:56.514Z,50.23
2024-01-05T10:48:29.688Z,45.53
2024-01-05T10:51:02.346Z,48.50
2024-01-05T10:53:38.516Z,51.57
2024-01-05T10:56:10.974Z,50.40
2024-01-05T10:58:43.720Z,59.43
2024-01-05T11:01:18.842Z,53.17
2024-01-05T11:03:53.128Z,54.37
2024-01-05T11:06:25.760Z,52.73
2024-01-05T11:08:57.589Z,49.20
2024-01-05T11:12:04.865Z,46.53
2024-01-05T11:14:54.041Z,50.33
2024-01-05T11:18:19.441Z,46.77
2024-01-05T11:21:11.377Z,52.73
2024-01-05T11:23:44.761Z,51.03
2024-01-05T11:26:37.098Z,51.47
2024-01-05T11:29:47.953Z,51.53
2024-01-05T11:32:48.253Z,54.37
2024-01-05T11:35:21.046Z,56.03
2024-01-05T11:37:54.083Z,67.93
2024-01-05T11:40:29.812Z,62.80
2024-01-05T11:43:29.823Z,66.57
2024-01-05T11:46:01.638Z,55.87
2024-01-05T11:48:37.087Z,63.27
2024-01-05T11:51:11.025Z,57.03
2024-01-05T11:53:45.552Z,61.13
2024-01-05T11:56:23.041Z,58.20
2024-01-05T11:58:55.109Z,90.80
2024-01-05T12:01:27.435Z,60.40
2024-01-05T12:03:59.553Z,63.00
2024-01-05T12:06:31.425Z,73.20
2024-01-05T12:09:04.175Z,67.13
2024-01-05T12:11:35.975Z,64.77
2024-01-05T12:14:08.233Z,60.07
2024-01-05T12:16:40.422Z,61.80
2024-01-05T12:19:21.284Z,68.13
2024-01-05T12:21:54.042Z,57.10
2024-01-05T12:24:26.607Z,60.40
2024-01-05T12:26:59.091Z,66.80
2024-01-05T12:29:31.887Z,64.20
2024-01-05T12:32:04.013Z,86.47
2024-01-05T12:34:36.690Z,65.60
2024-01-05T12:37:08.919Z,55.90
2024-01-05T12:39:40.859Z,55.03
2024-01-05T12:42:12.709Z,60.57
2024-01-05T12:44:46.151Z,61.60
2024-01-05T12:47:29.512Z,57.67
2024-01-05T12:50:05.044Z,60.43
2024-01-05T12:52:38.346Z,55.23
2024-01-05T12:55:10.070Z,73.27
2024-01-05T12:57:41.872Z,63.20
2024-01-05T13:00:13.996Z,63.30
2024-01-05T13:02:45.801Z,82.37
2024-01-05T13:05:31.233Z,66.17
2024-01-05T13:08:03.449Z,68.63
2024-01-05T13:10:37.442Z,68.93
2024-01-05T13:13:10.430Z,69.83
2024-01-05T13:15:42.361Z,80.83
2024-01-05T13:18:14.470Z,83.87
2024-01-05T13:20:46.334Z,79.60
2024-01-05T13:23:19.458Z,91.97
2024-01-05T13:25:52.214Z,97.07
2024-01-05T13:28:23.996Z,88.70
2024-01-05T13:30:56.445Z,91.37
2024-01-05T13:33:28.441Z,92.07
2024-01-05T13:36:00.585Z,83.90
2024-01-05T13:38:32.405Z,83.53
2024-01-05T13:41:05.677Z,92.07
2024-01-05T13:43:37.660Z,83.73
2024-01-05T13:46:09.444Z,98.87
2024-01-05T13:48:41.323Z,94.37
2024-01-05T13:51:13.205Z,87.03
2024-01-05T13:53:44.995Z,86.50
2024-01-05T13:56:16.769Z,101.33
2024-01-05T13:58:48.554Z,87.33
2024-01-05T14:01:20.328Z,81.33
2024-01-05T14:03:52.185Z,83.27
2024-01-05T14:06:23.991Z,76.67
2024-01-05T14:08:55.793Z,78.10
2024-01-05T14:11:27.724Z,79.73
2024-01-05T14:13:59.479Z,68.10
2024-01-05T14:16:31.321Z,73.53
2024-01-05T14:19:03.364Z,66.10
2024-01-05T14:21:35.945Z,60.30
2024-01-05T14:24:08.299Z,61.53
2024-01-05T14:26:40.096Z,63.23
2024-01-05T14:29:11.885Z,64.80
2024-01-05T14:31:43.771Z,66.47
2024-01-05T14:34:15.628Z,68.60
2024-01-05T14:36:47.795Z,70.47
2024-01-05T14:39:19.889Z,68.43
2024-01-05T14:41:51.708Z,62.87
2024-01-05T14:44:23.444Z,72.37
2024-01-05T14:46:55.658Z,64.73
2024-01-05T14:49:27.528Z,66.27
2024-01-05T14:52:01.157Z,65.00
2024-01-05T14:54:33.058Z,58.37
2024-01-05T14:57:05.185Z,70.00
2024-01-05T14:59:36.987Z,64.40
2024-01-05T15:02:08.765Z,74.90
2024-01-05T15:04:40.594Z,75.13
2024-01-05T15:07:12.502Z,64.43
2024-01-05T15:09:45.646Z,70.37
2024-01-05T15:12:18.827Z,74.93
2024-01-05T15:14:50.641Z,65.50
2024-01-05T15:17:22.514Z,64.40
2024-01-05T15:19:54.318Z,63.23
2024-01-05T15:22:26.091Z,74.90
2024-01-05T15:24:57.881Z,64.63
2024-01-05T15:27:29.846Z,66.57
2024-01-05T15:30:01.793Z,63.67
2024-01-05T15:32:33.650Z,64.63
2024-01-05T15:35:06.052Z,67.43
2024-01-05T15:37:37.889Z,73.20
2024-01-05T15:40:10.148Z,70.60
2024-01-05T15:42:42.363Z,71.57
2024-01-05T15:45:15.403Z,68.60
2024-01-05T15:47:47.895Z,63.10
2024-01-05T15:50:21.335Z,63.63
2024-01-05T15:52:53.237Z,67.60
2024-01-05T15:55:25.613Z,75.10
2024-01-05T15:57:57.473Z,63.50
2024-01-05T16:00:29.920Z,62.77
2024-01-05T16:03:01.893Z,70.33
2024-01-05T16:05:34.830Z,62.67
2024-01-05T16:08:06.867Z,68.60
2024-01-05T16:10:38.624Z,60.27
2024-01-05T16:13:10.424Z,60.63
2024-01-05T16:15:42.259Z,60.33
2024-01-05T16:18:14.181Z,62.10
2024-01-05T16:20:47.298Z,59.53
2024-01-05T16:23:19.205Z,53.00
2024-01-05T16:25:50.955Z,48.50
2024-01-05T16:28:22.673Z,51.70
2024-01-05T16:30:54.579Z,52.23
2024-01-05T16:33:30.701Z,50.87
2024-01-05T16:36:03.627Z,50.83
2024-01-05T16:38:36.772Z,58.37
2024-01-05T16:41:10.092Z,51.23
2024-01-05T16:43:42.012Z,50.80
2024-01-05T16:46:14.507Z,49.27
2024-01-05T16:48:50.335Z,48.67
2024-01-05T16:51:22.712Z,50.53
2024-01-05T16:53:55.778Z,49.83
2024-01-05T16:56:30.050Z,44.60
2024-01-05T16:59:02.887Z,47.77
2024-01-05T17:01:34.689Z,43.83
2024-01-05T17:04:10.152Z,50.60
2024-01-05T17:06:48.301Z,45.47
2024-01-05T17:09:20.816Z,52.50
2024-01-05T17:11:54.174Z,44.37
2024-01-05T17:14:27.486Z,45.13
2024-01-05T17:16:59.352Z,45.77
2024-01-05T17:19:31.331Z,46.83
2024-01-05T17:22:03.285Z,45.40
2024-01-05T17:24:37.355Z,50.27
2024-01-05T17:27:16.725Z,41.13
2024-01-05T17:29:49.160Z,43.33
2024-01-05T17:32:20.958Z,44.97
2024-01-05T17:34:52.763Z,46.17
2024-01-05T17:37:24.583Z,51.50
2024-01-05T17:39:56.323Z,45.90
2024-01-05T17:42:28.120Z,43.43
2024-01-05T17:44:59.866Z,44.27
2024-01-05T17:47:31.932Z,48.10
2024-01-05T17:50:03.900Z,44.10
2024-01-05T17:52:35.756Z,44.60
2024-01-05T17:55:08.397Z,44.20
2024-01-05T17:57:41.576Z,43.20
2024-01-05T18:00:13.893Z,42.67
2024-01-05T18:02:45.721Z,40.33
2024-01-05T18:05:17.610Z,46.23
2024-01-05T18:07:54.054Z,43.37
2024-01-05T18:10:25.867Z,46.30
2024-01-05T18:12:57.604Z,41.17
2024-01-05T18:15:29.458Z,47.40
2024-01-05T18:18:01.361Z,50.47
2024-01-05T18:20:33.293Z,43.27
2024-01-05T18:23:05.060Z,41.97
2024-01-05T18:25:41.264Z,43.00
2024-01-05T18:28:13.011Z,43.23
2024-01-05T18:30:47.813Z,44.37
2024-01-05T18:33:19.747Z,44.20
2024-01-05T18:35:51.619Z,43.73
2024-01-05T18:38:23.366Z,44.33
2024-01-05T18:40:56.445Z,43.07
2024-01-05T18:43:28.448Z,41.77
2024-01-05T18:46:00.242Z,41.40
2024-01-05T18:48:32.052Z,40.97
2024-01-05T18:51:05.051Z,41.37
2024-01-05T18:53:37.139Z,42.10
2024-01-05T18:56:09.038Z,38.63
2024-01-05T18:58:41.240Z,40.13
2024-01-05T19:01:13.615Z,37.50
2024-01-05T19:03:45.604Z,37.03
2024-01-05T19:06:18.204Z,38.30
2024-01-05T19:08:50.584Z,40.17
2024-01-05T19:11:22.373Z,39.93
2024-01-05T19:13:54.318Z,41.93
2024-01-05T19:16:28.752Z,42.33
2024-01-05T19:19:00.736Z,42.83
2024-01-05T19:21:40.167Z,42.27
2024-01-05T19:24:17.724Z,42.13
2024-01-05T19:26:49.527Z,40.80
2024-01-05T19:29:21.290Z,41.60
2024-01-05T19:31:53.137Z,42.87
2024-01-05T19:34:24.909Z,45.83
2024-01-05T19:36:56.737Z,42.07
2024-01-05T19:39:28.609Z,43.30
2024-01-05T19:42:01.234Z,41.63
2024-01-05T19:44:33.000Z,43.97
2024-01-05T19:47:04.981Z,45.03
2024-01-05T19:49:37.229Z,44.23
2024-01-05T19:52:09.530Z,41.73
2024-01-05T19:54:41.453Z,45.53
2024-01-05T19:57:13.807Z,42.50
2024-01-05T19:59:45.761Z,42.80
2024-01-05T20:02:17.959Z,46.13
2024-01-05T20:04:50.924Z,43.70
2024-01-05T20:07:22.930Z,42.43
2024-01-05T20:09:54.749Z,43.90
2024-01-05T20:12:28.402Z,44.27
2024-01-05T20:15:01.249Z,43.07
2024-01-05T20:17:33.158Z,45.60
2024-01-05T20:20:05.614Z,41.77
2024-01-05T20:22:41.460Z,41.73
2024-01-05T20:25:13.477Z,42.10
2024-01-05T20:27:45.372Z,50.53
2024-01-05T20:30:18.447Z,44.40
2024-01-05T20:32:50.350Z,48.77
2024-01-05T20:35:22.132Z,47.60
2024-01-05T20:37:53.929Z,49.77
2024-01-05T20:40:27.209Z,46.60
2024-01-05T20:42:59.929Z,47.53
2024-01-05T20:45:31.718Z,48.80
2024-01-05T20:48:04.232Z,50.37
2024-01-05T20:50:36.141Z,53.10
2024-01-05T20:53:11.817Z,52.73
2024-01-05T20:55:44.630Z,51.23
2024-01-05T20:58:16.878Z,61.23
2024-01-05T21:00:52.251Z,49.37
2024-01-05T21:03:24.361Z,50.20
2024-01-05T21:05:56.331Z,47.70
2024-01-05T21:08:31.459Z,54.23
2024-01-05T21:11:03.294Z,51.77
2024-01-05T21:13:35.091Z,53.37
2024-01-05T21:16:07.358Z,53.47
2024-01-05T21:18:39.200Z,51.97
2024-01-05T21:21:11.091Z,52.03
2024-01-05T21:23:42.834Z,53.20
2024-01-05T21:26:14.613Z,50.87
2024-01-05T21:28:46.445Z,52.20
2024-01-05T21:31:18.563Z,50.60
2024-01-05T21:33:50.734Z,51.77
2024-01-05T21:36:22.683Z,53.53
2024-01-05T21:38:54.869Z,52.67
2024-01-05T21:41:26.679Z,54.07
2024-01-05T21:43:58.647Z,53.93
2024-01-05T21:46:30.616Z,48.90
2024-01-05T21:49:02.528Z,49.83
2024-01-05T21:51:34.370Z,48.87
2024-01-05T21:54:06.227Z,51.17
2024-01-05T21:56:38.106Z,51.43
2024-01-05T21:59:10.486Z,51.53
2024-01-05T22:01:42.487Z,52.80
2024-01-05T22:04:15.420Z,57.43
2024-01-05T22:06:47.376Z,54.60
2024-01-05T22:09:20.864Z,59.20
2024-01-05T22:11:52.669Z,54.77
2024-01-05T22:14:24.613Z,55.23
2024-01-05T22:16:57.860Z,54.73
2024-01-05T22:19:29.914Z,57.53
2024-01-05T22:22:02.012Z,55.33
2024-01-05T22:24:33.793Z,58.10
2024-01-05T22:27:07.486Z,56.87
2024-01-05T22:29:39.305Z,56.13
2024-01-05T22:32:11.079Z,58.00
2024-01-05T22:34:44.223Z,54.57
2024-01-05T22:37:16.853Z,59.10
2024-01-05T22:39:48.742Z,57.90
2024-01-05T22:42:20.795Z,55.33
2024-01-05T22:44:53.100Z,53.90
2024-01-05T22:47:25.118Z,54.07
2024-01-05T22:49:56.956Z,56.30
2024-01-05T22:52:28.791Z,55.80
2024-01-05T22:55:04.057Z,52.87
2024-01-05T22:57:36.030Z,54.47
2024-01-05T23:00:11.572Z,55.07
2024-01-05T23:02:44.306Z,58.83
2024-01-05T23:05:16.403Z,55.10
2024-01-05T23:07:48.265Z,55.07
2024-01-05T23:10:20.265Z,55.10
2024-01-05T23:12:52.120Z,55.73
2024-01-05T23:15:24.156Z,55.13
2024-01-05T23:17:55.992Z,53.93
2024-01-05T23:20:29.634Z,55.93
2024-01-05T23:23:01.464Z,57.20
2024-01-05T23:25:33.235Z,54.00
2024-01-05T23:28:05.387Z,53.17
2024-01-05T23:30:37.228Z,52.63
2024-01-05T23:33:09.379Z,53.53
2024-01-05T23:35:41.576Z,50.33
2024-01-05T23:38:13.363Z,52.90
2024-01-05T23:40:45.186Z,48.50
2024-01-05T23:43:17.183Z,48.17
2024-01-05T23:45:49.038Z,49.53
2024-01-05T23:48:21.016Z,49.47
2024-01-05T23:50:52.829Z,49.53
2024-01-05T23:53:24.550Z,58.70
2024-01-05T23:55:56.328Z,52.27
2024-01-05T23:58:28.087Z,48.70
